Time;durP1;ratioP1;P1;durP2;ratioP2;P2;SDS_P1;SDS_P2;PMS_P1;PMS_P2;Temp;Humidity;BMP_temperature;BMP_pressure;BME280_temperature;BME280_humidity;BME280_pressure;Samples;Min_cycle;Max_cycle;Signal;HPM_P1;HPM_P2
2022/01/02 00:02:10;;;;;;;52.30;27.50;;;;;;;8.67;100.00;99828.10;4524330;77;21612;-92
2022/01/02 00:08:15;;;;;;;46.95;27.40;;;;;;;8.67;100.00;99819.35;4523517;77;21076;-88
2022/01/02 00:14:20;;;;;;;51.18;28.05;;;;;;;8.67;100.00;99826.73;4524684;77;21614;-90
2022/01/02 00:20:32;;;;;;;48.80;26.97;;;;;;;8.66;100.00;99823.79;4519631;77;21064;-90
2022/01/02 00:26:39;;;;;;;47.93;25.92;;;;;;;8.65;100.00;99811.27;4494374;77;21095;-90
2022/01/02 00:32:38;;;;;;;44.15;25.77;;;;;;;8.60;100.00;99800.01;4530498;77;21037;-90
2022/01/02 00:38:40;;;;;;;47.43;27.37;;;;;;;8.56;100.00;99799.67;4525427;77;21039;-89
2022/01/02 00:45:07;;;;;;;47.93;26.42;;;;;;;8.56;100.00;99806.50;4524084;77;21957;-89
2022/01/02 00:51:47;;;;;;;49.98;26.62;;;;;;;8.57;100.00;99801.25;4529913;77;20994;-90
2022/01/02 00:58:00;;;;;;;45.45;25.10;;;;;;;8.56;100.00;99801.04;4527364;77;21513;-90
2022/01/02 01:04:05;;;;;;;43.80;22.55;;;;;;;8.51;100.00;99796.61;4493539;77;21465;-89
2022/01/02 01:10:11;;;;;;;40.95;23.05;;;;;;;8.52;100.00;99799.55;4491454;77;21010;-89
2022/01/02 01:16:15;;;;;;;38.13;23.18;;;;;;;8.49;100.00;99804.33;4526567;77;21489;-89
2022/01/02 01:22:16;;;;;;;44.90;23.50;;;;;;;8.52;100.00;99793.32;4530180;77;21048;-90
2022/01/02 01:28:17;;;;;;;45.98;23.75;;;;;;;8.53;100.00;99782.63;4523620;77;21033;-90
2022/01/02 01:34:19;;;;;;;47.43;24.95;;;;;;;8.50;100.00;99778.66;4525683;77;21061;-89
2022/01/02 01:40:22;;;;;;;36.75;21.40;;;;;;;8.47;100.00;99774.45;4546906;77;21087;-89
2022/01/02 01:46:23;;;;;;;41.15;23.38;;;;;;;8.46;100.00;99770.11;4548670;77;21019;-92
2022/01/02 01:52:26;;;;;;;44.45;25.37;;;;;;;8.44;100.00;99761.48;4548231;77;21145;-92
2022/01/02 01:58:27;;;;;;;46.40;26.17;;;;;;;8.40;100.00;99753.74;4547366;77;21027;-89
2022/01/02 02:04:29;;;;;;;50.58;26.27;;;;;;;8.39;100.00;99745.34;4547242;77;21004;-89
2022/01/02 02:10:38;;;;;;;42.00;25.32;;;;;;;8.40;100.00;99734.09;4408235;79;21112;-94
2022/01/02 02:16:40;;;;;;;45.52;25.90;;;;;;;8.39;100.00;99736.59;4456042;78;21023;-92
2022/01/02 02:22:46;;;;;;;47.95;25.62;;;;;;;8.41;100.00;99736.25;4474880;78;21057;-93
2022/01/02 02:28:47;;;;;;;46.33;26.75;;;;;;;8.39;100.00;99730.34;4376841;80;21029;-90
2022/01/02 02:34:49;;;;;;;46.45;26.30;;;;;;;8.39;100.00;99729.78;4406972;79;21104;-89
2022/01/02 02:40:50;;;;;;;41.85;24.43;;;;;;;8.42;100.00;99718.17;4391549;79;22313;-89
2022/01/02 02:53:15;;;;;;;45.03;25.68;;;;;;;8.31;100.00;99706.14;4385976;79;21010;-91
2022/01/02 02:59:17;;;;;;;44.95;24.80;;;;;;;8.29;100.00;99702.95;4387247;79;21037;-94
2022/01/02 03:05:18;;;;;;;33.28;21.23;;;;;;;8.32;100.00;99685.09;4388590;79;21003;-89
2022/01/02 03:11:23;;;;;;;36.93;21.02;;;;;;;8.31;100.00;99695.78;4386266;79;21539;-89
2022/01/02 03:17:26;;;;;;;39.20;23.57;;;;;;;8.27;100.00;99688.85;4405290;78;21017;-89
2022/01/02 03:23:29;;;;;;;47.70;22.35;;;;;;;8.28;100.00;99685.00;4366700;80;21099;-89
2022/01/02 03:29:31;;;;;;;42.67;23.20;;;;;;;8.30;100.00;99664.98;4372666;80;21061;-89
2022/01/02 03:35:33;;;;;;;38.90;23.20;;;;;;;8.30;100.00;99665.56;4352920;80;21022;-89
2022/01/02 03:41:34;;;;;;;39.35;22.62;;;;;;;8.23;100.00;99660.69;4373786;80;21054;-89
2022/01/02 03:47:36;;;;;;;37.93;21.93;;;;;;;8.21;100.00;99632.92;4380014;80;21023;-90
2022/01/02 03:53:37;;;;;;;33.83;21.10;;;;;;;8.19;100.00;99634.41;4426680;78;21113;-90
2022/01/02 03:59:39;;;;;;;37.90;20.72;;;;;;;8.07;100.00;99637.94;4428329;78;21032;-89
2022/01/02 04:05:40;;;;;;;36.98;21.27;;;;;;;8.08;100.00;99635.43;4426536;78;21023;-90
2022/01/02 04:11:42;;;;;;;33.48;20.97;;;;;;;8.10;100.00;99632.39;4426925;78;21056;-90
2022/01/02 04:17:44;;;;;;;39.40;20.35;;;;;;;8.08;100.00;99627.84;4429047;78;21718;-90
2022/01/02 04:23:48;;;;;;;32.03;20.85;;;;;;;8.09;100.00;99617.95;4434155;78;21091;-88
2022/01/02 04:29:50;;;;;;;34.38;21.30;;;;;;;8.03;100.00;99622.61;4430183;78;21091;-89
2022/01/02 04:35:53;;;;;;;34.25;20.23;;;;;;;8.03;100.00;99619.88;4419720;78;21924;-89
2022/01/02 04:41:55;;;;;;;34.73;18.73;;;;;;;7.99;100.00;99617.05;4380758;80;21087;-90
2022/01/02 04:47:56;;;;;;;34.73;19.65;;;;;;;7.97;100.00;99614.66;4379804;80;21014;-90
2022/01/02 04:53:58;;;;;;;30.15;18.50;;;;;;;7.95;100.00;99602.52;4380274;80;21035;-90
2022/01/02 04:59:59;;;;;;;26.15;17.00;;;;;;;7.91;100.00;99587.41;4382560;80;21045;-92
2022/01/02 05:06:01;;;;;;;28.45;17.80;;;;;;;7.90;100.00;99585.03;4384708;79;21024;-90
2022/01/02 05:12:03;;;;;;;28.65;17.50;;;;;;;7.84;100.00;99579.59;4384269;81;21009;-94
2022/01/02 05:18:06;;;;;;;24.77;16.23;;;;;;;7.75;100.00;99554.39;4380185;79;21060;-90
2022/01/02 05:24:08;;;;;;;26.75;16.27;;;;;;;7.74;100.00;99543.25;4373362;80;20988;-90
2022/01/02 05:30:11;;;;;;;28.00;16.95;;;;;;;7.72;100.00;99542.81;4381869;79;21099;-90
2022/01/02 05:36:13;;;;;;;24.67;14.85;;;;;;;7.71;100.00;99528.39;4383043;79;21012;-90
2022/01/02 05:42:16;;;;;;;26.90;15.13;;;;;;;7.73;100.00;99526.69;4387395;78;21062;-91
2022/01/02 05:48:18;;;;;;;33.67;18.48;;;;;;;7.71;100.00;99513.95;4426935;78;21083;-90
2022/01/02 05:54:20;;;;;;;27.02;14.38;;;;;;;7.75;100.00;99497.16;4428475;78;21376;-90
2022/01/02 06:00:21;;;;;;;19.70;11.55;;;;;;;7.76;100.00;99496.02;4424588;78;21075;-90
2022/01/02 06:06:25;;;;;;;16.35;9.45;;;;;;;7.86;100.00;99474.52;4425360;78;21112;-90
2022/01/02 06:12:26;;;;;;;13.50;8.75;;;;;;;7.92;100.00;99455.41;4425394;78;21044;-89
2022/01/02 06:18:28;;;;;;;17.52;8.83;;;;;;;8.00;100.00;99448.25;4426837;78;21024;-89
2022/01/02 06:24:30;;;;;;;15.23;7.83;;;;;;;8.02;100.00;99437.77;4424069;78;21321;-90
2022/01/02 06:30:32;;;;;;;12.40;7.50;;;;;;;7.98;100.00;99431.44;4424200;78;21104;-93
2022/01/02 06:36:34;;;;;;;14.35;8.58;;;;;;;7.90;100.00;99416.82;4420859;78;21064;-89
2022/01/02 06:42:36;;;;;;;13.30;7.78;;;;;;;7.78;100.00;99424.25;4425514;78;22155;-88
2022/01/02 06:48:38;;;;;;;8.95;6.15;;;;;;;7.74;100.00;99411.88;4427259;78;21060;-88
2022/01/02 06:54:40;;;;;;;8.85;6.17;;;;;;;7.78;100.00;99405.17;4425354;78;21032;-89
2022/01/02 07:00:43;;;;;;;9.25;6.05;;;;;;;7.81;100.00;99403.89;4425399;78;21000;-90
2022/01/02 07:06:45;;;;;;;7.83;6.12;;;;;;;7.81;100.00;99399.80;4425546;78;21560;-90
2022/01/02 07:12:47;;;;;;;12.90;8.63;;;;;;;7.78;100.00;99380.05;4426094;78;21088;-89
2022/01/02 07:18:48;;;;;;;9.95;5.33;;;;;;;7.75;100.00;99362.27;4352321;80;20943;-88
2022/01/02 07:24:51;;;;;;;10.95;5.97;;;;;;;7.87;100.00;99349.94;4426422;78;21045;-90
2022/01/02 07:30:52;;;;;;;11.70;6.62;;;;;;;7.94;100.00;99324.21;4428662;78;21037;-92
2022/01/02 07:36:54;;;;;;;9.18;5.50;;;;;;;7.95;100.00;99315.69;4426670;78;21104;-89
2022/01/02 07:42:55;;;;;;;8.78;5.60;;;;;;;7.95;100.00;99324.45;4415415;78;21213;-90
2022/01/02 07:48:59;;;;;;;10.15;6.40;;;;;;;7.84;100.00;99319.29;4417403;79;21020;-90
2022/01/02 07:55:00;;;;;;;8.60;5.80;;;;;;;7.85;100.00;99286.23;4417880;78;21044;-90
2022/01/02 08:01:02;;;;;;;9.63;6.10;;;;;;;7.92;100.00;99299.27;4415323;79;21289;-93
2022/01/02 08:07:04;;;;;;;9.90;5.50;;;;;;;7.81;100.00;99293.51;4416001;79;21033;-90
2022/01/02 08:13:06;;;;;;;8.83;5.75;;;;;;;7.84;100.00;99286.02;4393274;79;21039;-91
2022/01/02 08:19:08;;;;;;;9.83;5.80;;;;;;;7.94;100.00;99272.42;4467840;79;21528;-89
2022/01/02 08:25:09;;;;;;;15.40;9.65;;;;;;;8.03;100.00;99264.30;4360942;80;21525;-91
2022/01/02 08:31:11;;;;;;;13.10;7.25;;;;;;;8.13;100.00;99250.70;4418888;79;21560;-89
2022/01/02 08:37:15;;;;;;;11.20;7.70;;;;;;;8.23;100.00;99240.67;4407865;78;21034;-90
2022/01/02 08:43:15;;;;;;;17.85;10.28;;;;;;;8.31;100.00;99229.36;4437814;78;21100;-89
2022/01/02 08:49:17;;;;;;;191.85;93.15;;;;;;;8.29;100.00;99216.08;4435621;78;21098;-89
2022/01/02 08:55:19;;;;;;;25.00;15.68;;;;;;;8.42;100.00;99212.67;4434553;78;21083;-89
2022/01/02 09:01:23;;;;;;;22.45;13.30;;;;;;;8.54;100.00;99218.80;4436231;78;21117;-91
2022/01/02 09:07:24;;;;;;;22.27;14.95;;;;;;;8.66;100.00;99210.48;4437650;78;21052;-91
2022/01/02 09:13:26;;;;;;;27.62;14.13;;;;;;;8.79;100.00;99202.95;4437345;78;21069;-89
2022/01/02 09:19:29;;;;;;;20.65;12.68;;;;;;;9.03;100.00;99176.19;4436459;78;21559;-90
2022/01/02 09:25:31;;;;;;;21.33;10.85;;;;;;;9.74;100.00;99175.53;4432344;78;21043;-89
2022/01/02 09:31:34;;;;;;;14.03;7.22;;;;;;;10.59;100.00;99162.61;4433461;78;21021;-90
2022/01/02 09:37:36;;;;;;;10.80;6.17;;;;;;;10.95;100.00;99161.34;4440051;78;21016;-89
2022/01/02 09:43:40;;;;;;;9.48;5.05;;;;;;;11.12;100.00;99145.48;4414720;78;21634;-90
2022/01/02 09:49:41;;;;;;;7.00;4.22;;;;;;;11.53;100.00;99145.70;4439884;78;21048;-90
2022/01/02 09:55:42;;;;;;;9.80;4.97;;;;;;;11.64;100.00;99143.88;4433229;78;21020;-89
2022/01/02 10:01:44;;;;;;;10.98;4.33;;;;;;;12.04;100.00;99140.50;4439010;78;21080;-91
2022/01/02 10:07:46;;;;;;;10.03;4.92;;;;;;;12.68;100.00;99136.97;4373352;80;20991;-90
2022/01/02 10:14:06;;;;;;;7.90;5.22;;;;;;;13.52;100.00;99131.01;4438732;78;21714;-91
2022/01/02 10:20:14;;;;;;;8.98;4.50;;;;;;;13.93;100.00;99128.09;4413071;78;21028;-92
2022/01/02 10:26:16;;;;;;;9.00;4.95;;;;;;;14.22;100.00;99112.92;4439698;78;21100;-91
2022/01/02 10:32:33;;;;;;;6.72;4.62;;;;;;;14.67;100.00;99114.80;4435374;78;21537;-91
2022/01/02 10:38:35;;;;;;;;;;;;;;;15.03;100.00;99096.94;4440452;78;21060;-89
2022/01/02 10:44:36;;;;;;;13.15;6.05;;;;;;;14.73;97.23;99089.78;4338800;80;20910;-90
2022/01/02 10:50:40;;;;;;;6.72;4.10;;;;;;;14.33;99.54;99078.69;4349107;80;21064;-90
2022/01/02 10:56:41;;;;;;;5.03;3.80;;;;;;;13.88;98.56;99081.70;4458469;79;21037;-89
2022/01/02 11:02:45;;;;;;;5.80;3.35;;;;;;;13.61;98.34;99077.77;4463081;79;21066;-90
2022/01/02 11:08:49;;;;;;;9.53;4.75;;;;;;;13.42;97.96;99074.02;4430482;79;21070;-90
2022/01/02 11:14:52;;;;;;;8.63;4.80;;;;;;;13.26;98.17;99065.95;4447223;79;21062;-90
2022/01/02 11:20:55;;;;;;;6.53;4.53;;;;;;;13.14;97.52;99042.98;4459749;79;21015;-89
2022/01/02 11:27:06;;;;;;;10.05;5.95;;;;;;;13.04;96.98;99025.29;4451512;79;21368;-91
2022/01/02 11:33:15;;;;;;;10.32;6.72;;;;;;;12.89;96.77;99016.02;4454304;79;21077;-90
2022/01/02 11:39:17;;;;;;;10.60;6.45;;;;;;;12.69;96.28;99003.20;4433519;78;22355;-90
2022/01/02 11:45:33;;;;;;;11.12;6.47;;;;;;;12.49;96.35;98995.89;4422110;78;21597;-91
2022/01/02 11:52:02;;;;;;;15.18;7.42;;;;;;;12.33;96.58;98987.20;4424647;78;21011;-92
2022/01/02 11:58:05;;;;;;;16.17;9.00;;;;;;;12.26;96.66;98970.69;4432669;78;21642;-91
2022/01/02 12:04:07;;;;;;;19.70;10.82;;;;;;;12.21;96.37;98964.22;4434382;78;21491;-91
2022/01/02 12:10:22;;;;;;;18.25;10.58;;;;;;;12.05;95.82;98968.44;4435379;78;21054;-89
2022/01/02 12:16:43;;;;;;;20.02;12.43;;;;;;;11.92;95.59;98956.22;4434155;78;21047;-90
2022/01/02 12:22:48;;;;;;;25.05;12.88;;;;;;;11.73;95.21;98955.92;4400192;78;21581;-90
2022/01/02 12:28:58;;;;;;;22.75;13.50;;;;;;;11.56;94.94;98961.30;4422586;78;21037;-91
2022/01/02 12:35:01;;;;;;;25.82;15.50;;;;;;;11.56;95.66;98955.20;4428220;78;21028;-90
2022/01/02 12:41:02;;;;;;;29.05;16.65;;;;;;;11.60;95.06;98951.92;4348787;80;21092;-90
2022/01/02 12:47:10;;;;;;;27.67;14.68;;;;;;;11.57;94.72;98951.31;4409790;79;21045;-91
2022/01/02 12:53:11;;;;;;;29.25;15.95;;;;;;;11.56;94.79;98940.13;4439400;78;21097;-90
2022/01/02 12:59:17;;;;;;;31.02;17.57;;;;;;;11.61;94.42;98928.80;4366618;80;21062;-90
2022/01/02 13:05:26;;;;;;;29.10;16.52;;;;;;;11.59;94.20;98922.91;4373886;80;21560;-90
2022/01/02 13:11:36;;;;;;;24.27;14.47;;;;;;;11.46;93.56;98924.98;4431850;78;21591;-89
2022/01/02 13:17:47;;;;;;;22.55;13.38;;;;;;;11.44;94.35;98919.89;4434486;78;21501;-89
2022/01/02 13:23:48;;;;;;;27.05;14.70;;;;;;;11.42;94.31;98926.33;4431884;78;21072;-91
2022/01/02 13:30:02;;;;;;;31.35;15.50;;;;;;;11.41;93.95;98927.51;4438550;78;21005;-90
2022/01/02 13:36:15;;;;;;;29.25;15.32;;;;;;;11.38;93.76;98934.33;4439752;78;21065;-89
2022/01/02 13:42:18;;;;;;;29.12;15.18;;;;;;;11.26;93.62;98931.30;4417608;78;21077;-94
2022/01/02 13:48:29;;;;;;;25.80;14.43;;;;;;;11.01;93.77;98922.91;4435601;78;21484;-89
2022/01/02 13:54:31;;;;;;;30.15;15.48;;;;;;;10.91;93.53;98914.61;4434284;78;21068;-90
2022/01/02 14:00:33;;;;;;;25.77;14.53;;;;;;;10.68;93.68;98915.39;4437082;78;21079;-91
2022/01/02 14:06:39;;;;;;;28.47;14.38;;;;;;;10.64;93.71;98910.44;4439890;78;21064;-89
2022/01/02 14:12:44;;;;;;;24.43;14.03;;;;;;;10.49;93.64;98897.80;4437801;78;21013;-90
2022/01/02 14:18:48;;;;;;;30.00;16.20;;;;;;;10.41;93.67;98917.47;4369447;80;21048;-90
2022/01/02 14:24:50;;;;;;;30.77;17.52;;;;;;;10.26;93.05;98919.83;4435996;78;21009;-89
2022/01/02 14:30:52;;;;;;;30.45;16.42;;;;;;;10.13;93.86;98904.05;4436430;78;21028;-90
2022/01/02 14:36:54;;;;;;;38.08;17.70;;;;;;;10.06;93.58;98895.72;4435490;78;21560;-89
2022/01/02 14:42:55;;;;;;;33.08;18.15;;;;;;;9.87;93.21;98883.58;4351185;80;21060;-92
2022/01/02 14:48:56;;;;;;;37.00;18.48;;;;;;;9.79;93.09;98877.24;4373982;80;21033;-89
2022/01/02 14:54:58;;;;;;;33.60;21.07;;;;;;;9.68;93.22;98875.56;4377615;80;21084;-91
2022/01/02 15:00:59;;;;;;;41.23;22.37;;;;;;;9.57;93.59;98843.97;4377536;80;21006;-90
2022/01/02 15:07:01;;;;;;;34.83;20.90;;;;;;;9.55;93.97;98843.58;4379173;80;21053;-89
2022/01/02 15:13:03;;;;;;;32.42;19.00;;;;;;;9.45;94.06;98847.75;4374662;80;21002;-89
2022/01/02 15:19:06;;;;;;;37.05;19.62;;;;;;;9.34;94.38;98844.08;4375417;80;20990;-90
2022/01/02 15:25:08;;;;;;;33.53;19.23;;;;;;;9.29;94.59;98841.67;4377482;80;21003;-90
2022/01/02 15:31:13;;;;;;;36.38;20.88;;;;;;;9.13;94.27;98828.76;4377947;80;21019;-89
2022/01/02 15:37:15;;;;;;;43.70;22.62;;;;;;;8.95;94.27;98822.27;4376646;80;21085;-90
2022/01/02 15:43:16;;;;;;;45.03;23.98;;;;;;;8.70;94.64;98832.59;4358967;79;21579;-89
2022/01/02 15:49:17;;;;;;;45.83;22.80;;;;;;;8.61;95.03;98816.49;4349055;80;21059;-89
2022/01/02 15:55:20;;;;;;;39.13;22.25;;;;;;;8.55;95.28;98823.38;4344323;80;21677;-89
2022/01/02 16:01:22;;;;;;;41.98;24.00;;;;;;;8.50;95.52;98829.17;4361404;80;21082;-89
2022/01/02 16:07:24;;;;;;;56.00;25.70;;;;;;;8.38;95.56;98818.42;4347577;80;21673;-89
2022/01/02 16:13:26;;;;;;;45.48;24.77;;;;;;;8.30;95.81;98807.78;4359174;80;21066;-89
2022/01/02 16:19:28;;;;;;;39.75;22.93;;;;;;;8.20;95.87;98801.52;4340762;82;22250;-92
2022/01/02 16:25:30;;;;;;;46.37;23.73;;;;;;;8.10;96.16;98807.59;4459468;79;21038;-90
2022/01/02 16:31:32;;;;;;;47.45;24.52;;;;;;;8.03;96.34;98794.63;4375891;80;22320;-90
2022/01/02 16:37:37;;;;;;;45.48;24.02;;;;;;;7.97;96.07;98788.66;4381017;80;21095;-90
2022/01/02 16:43:37;;;;;;;45.10;25.43;;;;;;;7.75;95.90;98786.70;4412530;78;21342;-90
2022/01/02 16:49:48;;;;;;;46.33;24.27;;;;;;;7.66;96.16;98774.45;4429035;78;21567;-89
2022/01/02 16:55:48;;;;;;;49.03;25.32;;;;;;;7.57;96.28;98768.45;4426752;78;21036;-89
2022/01/02 17:01:50;;;;;;;48.35;26.70;;;;;;;7.55;96.67;98762.00;4427030;78;21068;-90
2022/01/02 17:07:51;;;;;;;52.43;29.32;;;;;;;7.50;96.83;98771.81;4421487;78;21029;-90
2022/01/02 17:13:53;;;;;;;69.65;36.50;;;;;;;7.50;96.87;98764.23;4425938;78;21040;-90
2022/01/02 17:19:54;;;;;;;81.53;39.33;;;;;;;7.40;96.83;98739.73;4429742;78;22116;-90
2022/01/02 17:25:55;;;;;;;70.37;33.08;;;;;;;7.44;97.33;98732.97;4423345;78;21064;-90
2022/01/02 17:32:06;;;;;;;79.77;36.85;;;;;;;7.44;97.53;98737.05;4421670;78;21222;-90
2022/01/02 17:38:08;;;;;;;81.08;37.23;;;;;;;7.42;97.24;98722.44;4345823;81;21064;-90
2022/01/02 17:44:15;;;;;;;80.38;41.30;;;;;;;7.38;97.46;98719.44;4380888;80;21030;-90
2022/01/02 17:50:17;;;;;;;77.42;38.42;;;;;;;7.38;97.68;98700.38;4390948;80;21045;-91
2022/01/02 17:56:18;;;;;;;79.03;39.15;;;;;;;7.38;98.00;98699.81;4389601;81;21648;-91
2022/01/02 18:02:20;;;;;;;104.95;48.83;;;;;;;7.36;97.97;98680.31;4390490;79;22065;-90
2022/01/02 18:08:21;;;;;;;90.20;42.30;;;;;;;7.35;97.74;98658.89;4385965;81;21042;-91
2022/01/02 18:14:23;;;;;;;77.30;37.35;;;;;;;7.12;97.11;98673.05;4388248;81;21084;-91
2022/01/02 18:20:25;;;;;;;87.97;40.88;;;;;;;6.97;97.35;98695.11;4387920;81;21046;-91
2022/01/02 18:26:28;;;;;;;68.13;35.97;;;;;;;6.91;98.16;98682.13;4263092;79;10000145;-91
2022/01/02 18:32:30;;;;;;;74.25;38.92;;;;;;;6.94;98.01;98674.64;4422208;78;21524;-90
2022/01/02 18:38:32;;;;;;;75.60;40.10;;;;;;;6.99;98.33;98667.53;4431764;78;21033;-91
2022/01/02 18:44:33;;;;;;;91.55;44.67;;;;;;;7.05;98.28;98662.80;4416165;78;21055;-91
2022/01/02 18:50:36;;;;;;;85.50;43.33;;;;;;;7.02;98.21;98646.40;4420091;79;21065;-89
2022/01/02 18:56:39;;;;;;;127.82;69.67;;;;;;;7.05;98.48;98626.06;4426479;79;21638;-89
2022/01/02 19:02:40;;;;;;;117.90;65.35;;;;;;;7.14;98.29;98629.34;4385891;79;21090;-89
2022/01/02 19:08:47;;;;;;;126.67;69.20;;;;;;;7.21;98.55;98608.27;4387205;79;21050;-91
2022/01/02 19:14:46;;;;;;;106.45;57.40;;;;;;;7.18;98.39;98602.19;4357656;80;21097;-90
2022/01/02 19:20:47;;;;;;;100.20;52.40;;;;;;;7.18;98.73;98573.61;4362196;80;22117;-91
2022/01/02 19:26:50;;;;;;;78.95;40.98;;;;;;;7.14;98.60;98581.70;4364942;81;21073;-91
2022/01/02 19:32:51;;;;;;;78.07;39.45;;;;;;;7.06;98.76;98579.23;4458271;79;20994;-90
2022/01/02 19:38:54;;;;;;;86.85;40.78;;;;;;;7.14;99.13;98553.12;4356752;80;21034;-91
2022/01/02 19:44:55;;;;;;;74.05;38.60;;;;;;;7.19;99.00;98533.77;4345081;80;21003;-89
2022/01/02 19:50:58;;;;;;;73.87;36.90;;;;;;;7.22;98.92;98528.19;4386421;79;21131;-90
2022/01/02 19:57:00;;;;;;;71.80;34.40;;;;;;;7.22;98.78;98511.86;4407079;79;21041;-92
2022/01/02 20:03:02;;;;;;;62.13;32.58;;;;;;;7.15;98.80;98489.95;4399625;79;22273;-89
2022/01/02 20:09:04;;;;;;;64.90;32.20;;;;;;;7.04;98.80;98484.34;4411059;79;21538;-90
2022/01/02 20:15:09;;;;;;;61.15;32.83;;;;;;;6.88;98.75;98474.70;4394867;79;22073;-89
2022/01/02 20:21:12;;;;;;;41.10;20.85;;;;;;;6.85;99.01;98453.67;4402883;79;21038;-90
2022/01/02 20:27:14;;;;;;;23.83;12.47;;;;;;;6.97;98.87;98440.66;4404207;79;21068;-90
2022/01/02 20:33:16;;;;;;;35.05;17.55;;;;;;;7.05;98.95;98444.28;4399807;79;21055;-92
2022/01/02 20:39:17;;;;;;;61.23;30.02;;;;;;;7.17;98.64;98433.98;4393998;79;21127;-90
2022/01/02 20:45:19;;;;;;;83.00;42.88;;;;;;;7.15;98.16;98450.48;4414780;78;21605;-89
2022/01/02 20:51:21;;;;;;;74.87;39.63;;;;;;;7.05;98.15;98448.37;4349218;80;21071;-91
2022/01/02 20:57:22;;;;;;;80.22;42.05;;;;;;;6.88;98.20;98429.81;4249198;80;10000513;-92
2022/01/02 21:03:25;;;;;;;88.30;41.83;;;;;;;6.71;98.08;98429.74;4374285;80;21085;-91
2022/01/02 21:09:29;;;;;;;106.32;54.05;;;;;;;6.49;97.66;98431.87;4376862;80;20982;-89
2022/01/02 21:15:31;;;;;;;93.60;46.98;;;;;;;6.25;98.54;98415.88;4363578;80;21583;-89
2022/01/02 21:21:32;;;;;;;93.12;47.70;;;;;;;6.02;98.71;98390.61;4368818;80;21073;-91
2022/01/02 21:27:35;;;;;;;94.97;47.62;;;;;;;5.87;99.17;98387.41;4375286;80;21303;-90
2022/01/02 21:33:36;;;;;;;92.80;44.38;;;;;;;5.71;98.98;98409.19;4381191;80;21088;-91
2022/01/02 21:39:38;;;;;;;83.85;43.92;;;;;;;5.76;99.86;98429.24;4375381;80;21030;-89
2022/01/02 21:45:40;;;;;;;92.02;45.58;;;;;;;5.72;99.20;98433.83;4380494;80;21587;-89
2022/01/02 21:51:41;;;;;;;85.80;42.10;;;;;;;5.57;99.11;98452.33;4379756;80;21058;-89
2022/01/02 21:57:43;;;;;;;74.70;39.15;;;;;;;5.54;99.57;98439.47;4380514;80;21100;-89
2022/01/02 22:03:49;;;;;;;81.87;39.60;;;;;;;5.48;100.00;98431.36;4426048;78;20997;-89
2022/01/02 22:09:51;;;;;;;84.00;38.28;;;;;;;5.49;100.00;98434.87;4432506;78;20996;-90
2022/01/02 22:15:52;;;;;;;57.00;31.23;;;;;;;5.39;100.00;98438.91;4430906;78;21032;-91
2022/01/02 22:21:55;;;;;;;57.85;27.75;;;;;;;5.52;100.00;98436.88;4424721;78;21532;-91
2022/01/02 22:27:58;;;;;;;50.12;24.32;;;;;;;5.63;100.00;98433.25;4430296;78;21044;-89
2022/01/02 22:34:01;;;;;;;43.85;20.55;;;;;;;5.77;100.00;98444.98;4426849;78;21004;-88
2022/01/02 22:40:05;;;;;;;30.60;15.20;;;;;;;5.78;100.00;98451.41;4382024;80;21062;-92
2022/01/02 22:46:09;;;;;;;33.25;14.78;;;;;;;6.06;100.00;98439.03;4378054;80;21573;-90
2022/01/02 22:52:13;;;;;;;30.55;13.38;;;;;;;6.35;100.00;98449.28;4376090;80;21542;-90
2022/01/02 22:58:17;;;;;;;31.45;15.08;;;;;;;6.43;99.42;98460.52;4378501;80;21000;-88
2022/01/02 23:04:18;;;;;;;34.60;16.00;;;;;;;6.43;98.84;98455.08;4382444;80;21554;-90
2022/01/02 23:10:20;;;;;;;32.50;14.55;;;;;;;6.33;98.81;98461.87;4384217;80;21070;-89
2022/01/02 23:16:30;;;;;;;29.40;14.65;;;;;;;6.23;98.88;98475.27;4381310;80;21066;-89
2022/01/02 23:22:32;;;;;;;23.83;11.45;;;;;;;6.23;98.76;98467.13;4404210;78;21013;-89
2022/01/02 23:28:37;;;;;;;20.57;8.65;;;;;;;6.33;98.91;98469.24;4434047;78;21055;-90
2022/01/02 23:34:41;;;;;;;13.25;5.62;;;;;;;6.43;98.85;98487.70;4431960;78;21075;-90
2022/01/02 23:40:43;;;;;;;9.83;4.83;;;;;;;6.74;98.46;98486.70;4435555;78;21015;-89
2022/01/02 23:46:54;;;;;;;7.03;3.77;;;;;;;6.93;98.23;98480.66;4405599;79;22434;-91
2022/01/02 23:53:06;;;;;;;7.05;3.62;;;;;;;7.15;98.15;98482.58;4359953;80;21609;-90
2022/01/02 23:59:09;;;;;;;7.22;4.05;;;;;;;7.50;97.51;98481.75;4382967;80;21041;-90
